createdAt,value
2019-03-12T00:00:30.091Z,4.00
2019-03-12T00:01:31.016Z,8.00
2019-03-12T00:02:30.049Z,4.00
2019-03-12T00:03:30.034Z,4.00
2019-03-12T00:04:30.026Z,4.00
2019-03-12T00:05:30.017Z,4.00
2019-03-12T00:06:30.032Z,4.00
2019-03-12T00:07:30.005Z,4.00
2019-03-12T00:08:29.978Z,4.00
2019-03-12T00:09:29.975Z,4.00
2019-03-12T00:10:29.980Z,4.00
2019-03-12T00:11:29.946Z,4.00
2019-03-12T00:12:29.934Z,4.00
2019-03-12T00:13:29.926Z,4.00
2019-03-12T00:14:29.922Z,4.00
2019-03-12T00:15:29.926Z,4.00
2019-03-12T00:17:28.882Z,4.00
2019-03-12T00:18:29.877Z,4.00
2019-03-12T00:19:29.864Z,4.00
2019-03-12T00:20:29.881Z,4.00
2019-03-12T00:21:29.834Z,4.00
2019-03-12T00:22:29.836Z,4.00
2019-03-12T00:23:29.822Z,4.00
2019-03-12T00:24:29.880Z,4.00
2019-03-12T00:25:29.808Z,4.00
2019-03-12T00:26:29.791Z,8.00
2019-03-12T00:27:29.773Z,4.00
2019-03-12T00:28:29.768Z,8.00
2019-03-12T00:29:29.758Z,8.00
2019-03-12T00:30:29.739Z,4.00
2019-03-12T00:31:29.728Z,4.00
2019-03-12T00:32:29.742Z,4.00
2019-03-12T00:33:29.710Z,4.00
2019-03-12T00:34:29.694Z,4.00
2019-03-12T00:35:29.686Z,4.00
2019-03-12T00:36:29.677Z,4.00
2019-03-12T00:37:29.698Z,4.00
2019-03-12T00:38:29.656Z,4.00
2019-03-12T00:39:29.644Z,4.00
2019-03-12T00:40:29.628Z,4.00
2019-03-12T00:41:29.620Z,4.00
2019-03-12T00:42:29.614Z,4.00
2019-03-12T00:43:30.044Z,4.00
2019-03-12T00:44:29.612Z,4.00
2019-03-12T00:45:29.584Z,4.00
2019-03-12T00:46:29.581Z,4.00
2019-03-12T00:47:29.558Z,4.00
2019-03-12T00:48:29.545Z,8.00
2019-03-12T00:49:32.505Z,4.00
2019-03-12T00:50:29.538Z,8.00
2019-03-12T00:51:29.529Z,8.00
2019-03-12T00:52:29.506Z,4.00
2019-03-12T00:53:29.526Z,4.00
2019-03-12T00:54:29.488Z,4.00
2019-03-12T00:55:29.470Z,4.00
2019-03-12T00:56:29.461Z,4.00
2019-03-12T00:58:28.482Z,4.00
2019-03-12T00:59:29.431Z,4.00
2019-03-12T01:00:29.422Z,4.00
2019-03-12T01:01:29.414Z,4.00
2019-03-12T01:02:29.399Z,8.00
2019-03-12T01:03:29.656Z,4.00
2019-03-12T01:04:29.374Z,4.00
2019-03-12T01:05:29.357Z,4.00
2019-03-12T01:06:29.352Z,4.00
2019-03-12T01:07:29.340Z,4.00
2019-03-12T01:08:29.327Z,8.00
2019-03-12T01:09:29.344Z,4.00
2019-03-12T01:10:29.335Z,4.00
2019-03-12T01:11:29.299Z,4.00
2019-03-12T01:12:29.281Z,4.00
2019-03-12T01:13:29.282Z,8.00
2019-03-12T01:14:29.272Z,4.00
2019-03-12T01:15:29.249Z,4.00
2019-03-12T01:16:29.275Z,4.00
2019-03-12T01:17:29.232Z,4.00
2019-03-12T01:18:29.224Z,4.00
2019-03-12T01:19:29.235Z,4.00
2019-03-12T01:20:31.995Z,4.00
2019-03-12T01:21:29.191Z,4.00
2019-03-12T01:22:29.181Z,8.00
2019-03-12T01:23:29.176Z,4.00
2019-03-12T01:24:29.166Z,4.00
2019-03-12T01:25:29.181Z,4.00
2019-03-12T01:26:29.146Z,8.00
2019-03-12T01:27:29.126Z,8.00
2019-03-12T01:28:29.120Z,4.00
2019-03-12T01:29:29.115Z,8.00
2019-03-12T01:30:29.093Z,4.00
2019-03-12T01:31:29.115Z,8.00
2019-03-12T01:33:28.063Z,8.00
2019-03-12T01:34:29.051Z,8.00
2019-03-12T01:35:29.041Z,8.00
2019-03-12T01:36:29.041Z,8.00
2019-03-12T01:37:29.043Z,8.00
2019-03-12T01:38:29.006Z,8.00
2019-03-12T01:39:29.000Z,8.00
2019-03-12T01:40:28.990Z,4.00
2019-03-12T01:41:28.985Z,8.00
2019-03-12T01:42:28.959Z,8.00
2019-03-12T01:43:28.990Z,8.00
2019-03-12T01:44:29.479Z,8.00
2019-03-12T01:45:29.488Z,8.00
2019-03-12T01:46:28.923Z,8.00
2019-03-12T01:47:28.914Z,8.00
2019-03-12T01:48:31.480Z,8.00
2019-03-12T01:49:29.007Z,8.00
2019-03-12T01:50:28.869Z,8.00
2019-03-12T01:51:31.195Z,8.00
2019-03-12T01:52:28.852Z,8.00
2019-03-12T01:53:28.843Z,8.00
2019-03-12T01:54:28.827Z,8.00
2019-03-12T01:55:28.859Z,8.00
2019-03-12T01:56:28.839Z,8.00
2019-03-12T01:57:28.798Z,8.00
2019-03-12T01:58:28.787Z,8.00
2019-03-12T01:59:28.778Z,8.00
2019-03-12T02:00:28.765Z,8.00
2019-03-12T02:01:31.475Z,8.00
2019-03-12T02:02:29.473Z,8.00
2019-03-12T02:03:28.730Z,8.00
2019-03-12T02:04:28.724Z,8.00
2019-03-12T02:05:28.713Z,8.00
2019-03-12T02:06:31.471Z,8.00
2019-03-12T02:07:28.696Z,8.00
2019-03-12T02:08:28.725Z,8.00
2019-03-12T02:09:28.683Z,8.00
2019-03-12T02:10:28.655Z,8.00
2019-03-12T02:11:28.736Z,8.00
2019-03-12T02:12:28.639Z,8.00
2019-03-12T02:13:28.624Z,8.00
2019-03-12T02:14:29.468Z,8.00
2019-03-12T02:15:28.606Z,8.00
2019-03-12T02:16:28.625Z,8.00
2019-03-12T02:17:28.584Z,8.00
2019-03-12T02:18:28.573Z,8.00
2019-03-12T02:19:28.563Z,8.00
2019-03-12T02:20:28.553Z,8.00
2019-03-12T02:21:28.543Z,8.00
2019-03-12T02:22:28.565Z,8.00
2019-03-12T02:23:29.127Z,8.00
2019-03-12T02:24:28.507Z,8.00
2019-03-12T02:25:28.531Z,8.00
2019-03-12T02:26:28.492Z,8.00
2019-03-12T02:27:28.485Z,8.00
2019-03-12T02:28:28.468Z,8.00
2019-03-12T02:29:28.452Z,8.00
2019-03-12T02:30:28.445Z,8.00
2019-03-12T02:31:28.462Z,8.00
2019-03-12T02:32:28.418Z,8.00
2019-03-12T02:33:28.412Z,8.00
2019-03-12T02:34:28.410Z,8.00
2019-03-12T02:35:28.392Z,8.00
2019-03-12T02:36:28.376Z,8.00
2019-03-12T02:37:28.395Z,8.00
2019-03-12T02:38:28.353Z,8.00
2019-03-12T02:39:28.342Z,8.00
2019-03-12T02:40:28.344Z,8.00
2019-03-12T02:41:28.328Z,8.00
2019-03-12T02:42:28.311Z,8.00
2019-03-12T02:43:28.340Z,8.00
2019-03-12T02:44:28.291Z,8.00
2019-03-12T02:45:28.276Z,8.00
2019-03-12T02:46:28.265Z,8.00
2019-03-12T02:47:28.259Z,8.00
2019-03-12T02:48:28.299Z,8.00
2019-03-12T02:49:28.964Z,8.00
2019-03-12T02:50:28.223Z,8.00
2019-03-12T02:51:28.217Z,8.00
2019-03-12T02:52:28.205Z,8.00
2019-03-12T02:53:28.192Z,8.00
2019-03-12T02:54:28.963Z,8.00
2019-03-12T02:55:28.172Z,8.00
2019-03-12T02:56:28.159Z,8.00
2019-03-12T02:57:28.152Z,8.00
2019-03-12T02:58:28.176Z,8.00
2019-03-12T02:59:28.131Z,8.00
2019-03-12T03:00:28.146Z,8.00
2019-03-12T03:01:28.118Z,8.00
2019-03-12T03:02:30.965Z,8.00
2019-03-12T03:03:28.083Z,8.00
2019-03-12T03:04:28.072Z,8.00
2019-03-12T03:05:28.064Z,8.00
2019-03-12T03:06:28.076Z,8.00
2019-03-12T03:07:28.039Z,8.00
2019-03-12T03:08:28.957Z,8.00
2019-03-12T03:09:28.023Z,8.00
2019-03-12T03:10:28.016Z,8.00
2019-03-12T03:11:28.001Z,8.00
2019-03-12T03:12:27.984Z,8.00
2019-03-12T03:13:27.978Z,8.00
2019-03-12T03:14:28.004Z,8.00
2019-03-12T03:15:27.963Z,8.00
2019-03-12T03:16:27.937Z,8.00
2019-03-12T03:17:27.936Z,8.00
2019-03-12T03:18:27.920Z,8.00
2019-03-12T03:19:27.909Z,8.00
2019-03-12T03:20:28.496Z,8.00
2019-03-12T03:21:27.893Z,8.00
2019-03-12T03:22:27.880Z,8.00
2019-03-12T03:23:28.456Z,8.00
2019-03-12T03:24:27.860Z,8.00
2019-03-12T03:25:27.879Z,8.00
2019-03-12T03:26:27.833Z,4.00
2019-03-12T03:27:29.581Z,4.00
2019-03-12T03:28:27.814Z,4.00
2019-03-12T03:29:30.447Z,36.00
2019-03-12T03:30:27.872Z,40.00
2019-03-12T03:32:26.864Z,40.00
2019-03-12T03:33:33.972Z,40.00
2019-03-12T03:34:48.755Z,40.00
2019-03-12T03:35:27.747Z,40.00
2019-03-12T03:36:27.730Z,40.00
2019-03-12T03:37:27.722Z,8.00
2019-03-12T03:38:27.710Z,8.00
2019-03-12T03:39:27.719Z,8.00
2019-03-12T03:40:30.445Z,8.00
2019-03-12T03:41:27.698Z,8.00
2019-03-12T03:42:27.667Z,8.00
2019-03-12T03:43:27.660Z,8.00
2019-03-12T03:44:30.444Z,8.00
2019-03-12T03:45:27.626Z,8.00
2019-03-12T03:46:30.442Z,8.00
2019-03-12T03:47:27.634Z,8.00
2019-03-12T03:48:27.601Z,8.00
2019-03-12T03:49:27.587Z,8.00
2019-03-12T03:50:27.590Z,8.00
2019-03-12T03:52:26.568Z,8.00
2019-03-12T03:53:27.576Z,8.00
2019-03-12T03:54:27.622Z,8.00
2019-03-12T03:55:27.516Z,8.00
2019-03-12T03:56:27.507Z,8.00
2019-03-12T03:57:27.502Z,8.00
2019-03-12T03:58:27.494Z,8.00
2019-03-12T03:59:27.512Z,8.00
2019-03-12T04:00:27.465Z,8.00
2019-03-12T04:01:27.447Z,8.00
2019-03-12T04:02:27.440Z,8.00
2019-03-12T04:03:27.436Z,8.00
2019-03-12T04:04:29.939Z,8.00
2019-03-12T04:05:29.939Z,8.00
2019-03-12T04:06:27.405Z,8.00
2019-03-12T04:07:27.418Z,8.00
2019-03-12T04:08:27.383Z,8.00
2019-03-12T04:09:27.370Z,8.00
2019-03-12T04:10:27.358Z,8.00
2019-03-12T04:11:29.937Z,8.00
2019-03-12T04:12:27.333Z,8.00
2019-03-12T04:13:27.324Z,8.00
2019-03-12T04:14:27.320Z,8.00
2019-03-12T04:15:27.308Z,8.00
2019-03-12T04:16:27.320Z,8.00
2019-03-12T04:17:27.282Z,8.00
2019-03-12T04:18:27.318Z,8.00
2019-03-12T04:19:27.252Z,8.00
2019-03-12T04:20:27.254Z,8.00
2019-03-12T04:21:27.244Z,8.00
2019-03-12T04:22:27.248Z,8.00
2019-03-12T04:23:27.213Z,8.00
2019-03-12T04:24:27.211Z,8.00
2019-03-12T04:25:27.190Z,8.00
2019-03-12T04:26:27.188Z,8.00
2019-03-12T04:27:27.172Z,8.00
2019-03-12T04:28:27.191Z,8.00
2019-03-12T04:29:27.149Z,8.00
2019-03-12T04:30:27.143Z,8.00
2019-03-12T04:31:27.133Z,8.00
2019-03-12T04:33:26.140Z,8.00
2019-03-12T04:34:27.093Z,8.00
2019-03-12T04:35:27.086Z,8.00
2019-03-12T04:36:27.926Z,8.00
2019-03-12T04:37:27.060Z,8.00
2019-03-12T04:38:27.086Z,8.00
2019-03-12T04:39:27.051Z,8.00
2019-03-12T04:40:27.924Z,8.00
2019-03-12T04:41:27.024Z,8.00
2019-03-12T04:42:27.010Z,8.00
2019-03-12T04:43:27.020Z,8.00
2019-03-12T04:44:26.995Z,8.00
2019-03-12T04:45:26.977Z,8.00
2019-03-12T04:46:26.962Z,8.00
2019-03-12T04:47:26.955Z,8.00
2019-03-12T04:48:26.953Z,8.00
2019-03-12T04:49:26.932Z,8.00
2019-03-12T04:50:26.927Z,4.00
2019-03-12T04:51:26.910Z,8.00
2019-03-12T04:52:26.904Z,4.00
2019-03-12T04:53:26.892Z,4.00
2019-03-12T04:54:26.884Z,4.00
2019-03-12T04:55:26.870Z,4.00
2019-03-12T04:56:26.865Z,4.00
2019-03-12T04:57:26.846Z,4.00
2019-03-12T04:58:26.835Z,4.00
2019-03-12T04:59:26.828Z,4.00
2019-03-12T05:00:32.916Z,4.00
2019-03-12T05:01:26.813Z,8.00
2019-03-12T05:02:26.796Z,8.00
2019-03-12T05:03:26.779Z,4.00
2019-03-12T05:04:26.792Z,8.00
2019-03-12T05:05:26.800Z,8.00
2019-03-12T05:06:26.780Z,8.00
2019-03-12T05:07:26.740Z,8.00
2019-03-12T05:08:26.729Z,8.00
2019-03-12T05:09:26.721Z,12.00
2019-03-12T05:10:26.701Z,12.00
2019-03-12T05:11:26.694Z,12.00
2019-03-12T05:12:26.728Z,12.00
2019-03-12T05:13:26.684Z,16.00
2019-03-12T05:14:26.751Z,20.00
2019-03-12T05:15:26.650Z,24.00
2019-03-12T05:16:26.638Z,20.00
2019-03-12T05:17:26.641Z,28.00
2019-03-12T05:18:26.645Z,28.00
2019-03-12T05:19:26.606Z,32.00
2019-03-12T05:20:26.596Z,36.00
2019-03-12T05:21:26.585Z,40.00
2019-03-12T05:22:26.573Z,48.00
2019-03-12T05:23:26.564Z,52.00
2019-03-12T05:24:26.586Z,60.00
2019-03-12T05:25:26.550Z,60.00
2019-03-12T05:26:26.540Z,68.00
2019-03-12T05:27:26.542Z,76.00
2019-03-12T05:28:26.590Z,84.00
2019-03-12T05:29:26.505Z,92.00
2019-03-12T05:30:26.518Z,100.00
2019-03-12T05:31:26.480Z,108.00
2019-03-12T05:32:26.467Z,116.00
2019-03-12T05:33:26.459Z,128.00
2019-03-12T05:34:26.440Z,136.00
2019-03-12T05:35:26.438Z,144.00
2019-03-12T05:36:26.449Z,156.00
2019-03-12T05:37:26.413Z,168.00
2019-03-12T05:38:26.950Z,180.00
2019-03-12T05:39:26.423Z,192.00
2019-03-12T05:40:28.906Z,204.00
2019-03-12T05:41:28.904Z,212.00
2019-03-12T05:42:26.362Z,224.00
2019-03-12T05:43:26.346Z,236.00
2019-03-12T05:44:28.904Z,248.00
2019-03-12T05:45:26.356Z,260.00
2019-03-12T05:46:26.312Z,280.00
2019-03-12T05:47:26.316Z,316.00
2019-03-12T05:48:26.298Z,392.00
2019-03-12T05:49:26.288Z,420.00
2019-03-12T05:50:26.904Z,408.00
2019-03-12T05:51:26.262Z,392.00
2019-03-12T05:52:26.252Z,412.00
2019-03-12T05:54:25.236Z,472.00
2019-03-12T05:55:26.226Z,492.00
2019-03-12T05:56:26.208Z,484.00
2019-03-12T05:57:26.194Z,476.00
2019-03-12T05:58:26.191Z,484.00
2019-03-12T06:00:25.239Z,564.00
2019-03-12T06:01:26.158Z,552.00
2019-03-12T06:02:26.142Z,540.00
2019-03-12T06:03:26.132Z,492.00
2019-03-12T06:04:26.124Z,492.00
2019-03-12T06:05:26.130Z,456.00
2019-03-12T06:06:26.096Z,368.00
2019-03-12T06:07:26.094Z,348.00
2019-03-12T06:08:26.078Z,340.00
2019-03-12T06:09:30.384Z,352.00
2019-03-12T06:10:26.081Z,372.00
2019-03-12T06:11:26.043Z,368.00
2019-03-12T06:12:26.036Z,392.00
2019-03-12T06:13:26.032Z,388.00
2019-03-12T06:14:26.014Z,520.00
2019-03-12T06:15:26.895Z,616.00
2019-03-12T06:16:25.990Z,500.00
2019-03-12T06:17:25.982Z,480.00
2019-03-12T06:18:25.972Z,460.00
2019-03-12T06:19:25.963Z,344.00
2019-03-12T06:20:25.952Z,420.00
2019-03-12T06:21:25.970Z,452.00
2019-03-12T06:22:25.924Z,532.00
2019-03-12T06:23:25.914Z,584.00
2019-03-12T06:24:26.293Z,536.00
2019-03-12T06:25:26.748Z,580.00
2019-03-12T06:26:26.574Z,716.00
2019-03-12T06:27:25.868Z,856.00
2019-03-12T06:28:26.053Z,884.00
2019-03-12T06:29:26.222Z,888.00
2019-03-12T06:30:27.120Z,956.00
2019-03-12T06:31:25.953Z,988.00
2019-03-12T06:32:25.941Z,968.00
2019-03-12T06:33:25.896Z,852.00
2019-03-12T06:34:25.793Z,752.00
2019-03-12T06:35:25.928Z,752.00
2019-03-12T06:36:25.773Z,732.00
2019-03-12T06:37:25.791Z,800.00
2019-03-12T06:38:26.387Z,924.00
2019-03-12T06:39:25.748Z,1052.00
2019-03-12T06:40:28.390Z,1200.00
2019-03-12T06:41:25.718Z,1384.00
2019-03-12T06:42:25.709Z,1460.00
2019-03-12T06:43:25.723Z,1420.00
2019-03-12T06:44:25.686Z,1520.00
2019-03-12T06:45:25.676Z,1616.00
2019-03-12T06:46:25.704Z,1648.00
2019-03-12T06:47:25.657Z,1560.00
2019-03-12T06:48:28.384Z,1528.00
2019-03-12T06:49:25.713Z,1568.00
2019-03-12T06:50:25.626Z,1644.00
2019-03-12T06:51:25.608Z,1740.00
2019-03-12T06:52:25.628Z,1756.00
2019-03-12T06:53:25.593Z,1748.00
2019-03-12T06:54:25.581Z,1668.00
2019-03-12T06:55:25.568Z,1488.00
2019-03-12T06:57:27.378Z,1400.00
2019-03-12T06:58:25.540Z,1364.00
2019-03-12T06:59:25.573Z,1356.00
2019-03-12T07:00:25.505Z,1568.00
2019-03-12T07:01:25.500Z,1780.00
2019-03-12T07:02:26.378Z,1736.00
2019-03-12T07:03:28.382Z,1748.00
2019-03-12T07:04:25.487Z,1724.00
2019-03-12T07:05:25.486Z,1624.00
2019-03-12T07:06:25.446Z,1664.00
2019-03-12T07:07:25.447Z,1752.00
2019-03-12T07:08:25.426Z,1884.00
2019-03-12T07:09:28.380Z,1928.00
2019-03-12T07:11:24.416Z,1668.00
2019-03-12T07:12:25.389Z,1784.00
2019-03-12T07:13:25.878Z,2008.00
2019-03-12T07:14:25.380Z,2148.00
2019-03-12T07:16:24.346Z,2148.00
2019-03-12T07:17:25.323Z,2216.00
2019-03-12T07:18:25.318Z,2320.00
2019-03-12T07:19:25.307Z,2332.00
2019-03-12T07:20:25.327Z,2452.00
2019-03-12T07:21:25.320Z,2508.00
2019-03-12T07:22:25.272Z,2556.00
2019-03-12T07:23:25.263Z,2536.00
2019-03-12T07:24:25.254Z,2572.00
2019-03-12T07:25:25.262Z,2676.00
2019-03-12T07:26:25.366Z,2672.00
2019-03-12T07:27:25.221Z,2728.00
2019-03-12T07:28:25.209Z,2804.00
2019-03-12T07:29:25.194Z,2732.00
2019-03-12T07:30:25.195Z,2824.00
2019-03-12T07:31:25.246Z,2884.00
2019-03-12T07:32:25.206Z,2872.00
2019-03-12T07:33:25.154Z,2724.00
2019-03-12T07:34:36.184Z,2828.00
2019-03-12T07:35:25.128Z,2888.00
2019-03-12T07:36:25.118Z,2924.00
2019-03-12T07:37:25.112Z,2996.00
2019-03-12T07:38:25.220Z,2824.00
2019-03-12T07:39:25.088Z,2748.00
2019-03-12T07:40:25.085Z,2844.00
2019-03-12T07:41:32.401Z,3008.00
2019-03-12T07:42:25.060Z,2828.00
2019-03-12T07:43:25.047Z,2756.00
2019-03-12T07:44:25.079Z,2808.00
2019-03-12T07:45:25.038Z,2924.00
2019-03-12T07:46:25.047Z,3152.00
2019-03-12T07:47:35.250Z,3316.00
2019-03-12T07:48:25.010Z,3168.00
2019-03-12T07:49:24.997Z,3072.00
2019-03-12T07:50:24.968Z,3176.00
2019-03-12T07:51:24.977Z,3276.00
2019-03-12T07:52:24.977Z,2984.00
2019-03-12T07:53:24.939Z,2676.00
2019-03-12T07:54:24.934Z,2736.00
2019-03-12T07:55:24.942Z,3284.00
2019-03-12T07:56:24.908Z,3336.00
2019-03-12T07:57:24.894Z,3424.00
2019-03-12T07:58:35.316Z,3464.00
2019-03-12T07:59:24.876Z,3520.00
2019-03-12T08:00:24.897Z,3456.00
2019-03-12T08:01:25.165Z,3816.00
2019-03-12T08:02:24.845Z,3812.00
2019-03-12T08:03:24.835Z,3764.00
2019-03-12T08:04:24.821Z,3872.00
2019-03-12T08:05:27.949Z,4032.00
2019-03-12T08:06:24.837Z,4028.00
2019-03-12T08:07:24.828Z,3784.00
2019-03-12T08:08:24.780Z,3756.00
2019-03-12T08:09:24.767Z,3880.00
2019-03-12T08:10:24.754Z,3840.00
2019-03-12T08:11:24.751Z,3840.00
2019-03-12T08:12:24.765Z,3840.00
2019-03-12T08:13:24.721Z,3764.00
2019-03-12T08:14:26.913Z,3772.00
2019-03-12T08:15:24.700Z,3852.00
2019-03-12T08:16:24.691Z,3752.00
2019-03-12T08:17:24.803Z,3792.00
2019-03-12T08:18:24.669Z,3896.00
2019-03-12T08:19:24.657Z,3956.00
2019-03-12T08:20:24.648Z,4024.00
2019-03-12T08:21:24.642Z,4064.00
2019-03-12T08:22:24.627Z,4248.00
2019-03-12T08:23:24.648Z,4272.00
2019-03-12T08:24:24.606Z,4280.00
2019-03-12T08:25:24.590Z,4080.00
2019-03-12T08:26:24.585Z,4052.00
2019-03-12T08:27:26.078Z,4060.00
2019-03-12T08:28:24.588Z,4352.00
2019-03-12T08:29:24.545Z,4536.00
2019-03-12T08:30:24.543Z,4320.00
2019-03-12T08:31:24.529Z,4056.00
2019-03-12T08:32:24.519Z,3976.00
2019-03-12T08:33:24.499Z,4104.00
2019-03-12T08:34:24.522Z,4196.00
2019-03-12T08:35:24.488Z,4148.00
2019-03-12T08:36:24.473Z,4356.00
2019-03-12T08:37:24.569Z,4492.00
2019-03-12T08:38:24.453Z,4448.00
2019-03-12T08:39:24.438Z,4468.00
2019-03-12T08:40:24.471Z,4568.00
2019-03-12T08:41:24.419Z,4740.00
2019-03-12T08:42:24.441Z,4584.00
2019-03-12T08:43:24.388Z,4600.00
2019-03-12T08:44:26.370Z,4696.00
2019-03-12T08:45:24.373Z,4580.00
2019-03-12T08:46:24.384Z,4720.00
2019-03-12T08:47:24.364Z,5064.00
2019-03-12T08:48:24.366Z,5148.00
2019-03-12T08:49:24.335Z,5060.00
2019-03-12T08:50:24.317Z,5096.00
2019-03-12T08:51:24.305Z,5252.00
2019-03-12T08:52:24.299Z,5324.00
2019-03-12T08:53:24.294Z,5012.00
2019-03-12T08:54:24.315Z,5080.00
2019-03-12T08:55:24.265Z,4776.00
2019-03-12T08:56:24.250Z,4664.00
2019-03-12T08:57:24.243Z,4552.00
2019-03-12T08:58:24.265Z,4624.00
2019-03-12T08:59:24.221Z,4736.00
2019-03-12T09:00:24.327Z,4756.00
2019-03-12T09:01:24.211Z,4904.00
2019-03-12T09:02:24.183Z,5140.00
2019-03-12T09:03:24.198Z,5484.00
2019-03-12T09:04:24.372Z,5248.00
2019-03-12T09:05:24.157Z,4744.00
2019-03-12T09:06:24.145Z,4604.00
2019-03-12T09:07:24.841Z,4800.00
2019-03-12T09:08:24.120Z,5084.00
2019-03-12T09:09:24.112Z,5012.00
2019-03-12T09:10:24.182Z,5044.00
2019-03-12T09:11:24.090Z,5096.00
2019-03-12T09:12:24.231Z,5000.00
2019-03-12T09:13:24.062Z,4564.00
2019-03-12T09:14:24.058Z,4604.00
2019-03-12T09:15:24.039Z,4700.00
2019-03-12T09:16:24.078Z,4812.00
2019-03-12T09:17:24.027Z,4680.00
2019-03-12T09:18:24.012Z,4508.00
2019-03-12T09:19:24.005Z,4756.00
2019-03-12T09:20:26.838Z,4728.00
2019-03-12T09:21:23.977Z,4432.00
2019-03-12T09:22:23.992Z,4504.00
2019-03-12T09:23:23.955Z,4348.00
2019-03-12T09:24:23.942Z,4136.00
2019-03-12T09:25:23.967Z,4240.00
2019-03-12T09:26:23.929Z,4204.00
2019-03-12T09:27:23.910Z,4056.00
2019-03-12T09:28:23.895Z,3944.00
2019-03-12T09:29:23.890Z,3796.00
2019-03-12T09:30:23.881Z,3832.00
2019-03-12T09:31:23.889Z,4064.00
2019-03-12T09:32:23.851Z,4660.00
2019-03-12T09:33:23.847Z,4780.00
2019-03-12T09:34:23.828Z,4916.00
2019-03-12T09:35:23.818Z,5412.00
2019-03-12T09:36:23.809Z,5824.00
2019-03-12T09:37:23.820Z,5868.00
2019-03-12T09:38:23.785Z,5968.00
2019-03-12T09:39:23.778Z,5816.00
2019-03-12T09:40:23.771Z,6056.00
2019-03-12T09:41:23.753Z,6200.00
2019-03-12T09:42:23.769Z,6044.00
2019-03-12T09:43:23.736Z,5952.00
2019-03-12T09:44:23.722Z,5840.00
2019-03-12T09:45:23.715Z,6108.00
2019-03-12T09:46:23.695Z,6252.00
2019-03-12T09:47:23.693Z,6368.00
2019-03-12T09:48:23.705Z,6156.00
2019-03-12T09:49:23.675Z,5916.00
2019-03-12T09:50:23.657Z,5732.00
2019-03-12T09:51:23.652Z,5784.00
2019-03-12T09:52:23.632Z,5688.00
2019-03-12T09:53:23.657Z,5436.00
2019-03-12T09:54:23.640Z,5432.00
2019-03-12T09:55:23.601Z,5492.00
2019-03-12T09:56:23.590Z,6096.00
2019-03-12T09:57:23.626Z,6140.00
2019-03-12T09:58:23.557Z,5984.00
2019-03-12T09:59:23.589Z,5892.00
2019-03-12T10:00:23.551Z,6052.00
2019-03-12T10:01:23.541Z,6076.00
2019-03-12T10:02:23.529Z,6032.00
2019-03-12T10:03:23.513Z,6036.00
2019-03-12T10:04:23.637Z,6020.00
2019-03-12T10:05:23.530Z,5880.00
2019-03-12T10:06:23.513Z,5980.00
2019-03-12T10:07:23.465Z,5208.00
2019-03-12T10:08:23.464Z,6504.00
2019-03-12T10:09:23.447Z,6520.00
2019-03-12T10:10:23.473Z,6628.00
2019-03-12T10:11:23.424Z,6728.00
2019-03-12T10:12:23.409Z,6692.00
2019-03-12T10:13:23.431Z,6420.00
2019-03-12T10:14:23.394Z,6252.00
2019-03-12T10:15:23.383Z,6560.00
2019-03-12T10:16:23.491Z,6456.00
2019-03-12T10:17:23.362Z,5984.00
2019-03-12T10:18:23.351Z,5876.00
2019-03-12T10:19:23.333Z,5596.00
2019-03-12T10:20:23.325Z,5296.00
2019-03-12T10:21:23.324Z,5208.00
2019-03-12T10:22:23.356Z,5224.00
2019-03-12T10:23:23.381Z,4836.00
2019-03-12T10:24:23.301Z,5160.00
2019-03-12T10:25:23.274Z,5624.00
2019-03-12T10:26:23.257Z,6076.00
2019-03-12T10:27:23.247Z,6588.00
2019-03-12T10:28:23.292Z,7328.00
2019-03-12T10:29:23.234Z,7608.00
2019-03-12T10:30:23.217Z,7116.00
2019-03-12T10:31:23.212Z,7172.00
2019-03-12T10:32:23.620Z,6688.00
2019-03-12T10:33:23.186Z,4708.00
2019-03-12T10:34:29.511Z,4072.00
2019-03-12T10:35:23.235Z,4172.00
2019-03-12T10:36:23.293Z,4236.00
2019-03-12T10:37:23.137Z,3572.00
2019-03-12T10:38:23.164Z,3444.00
2019-03-12T10:39:23.157Z,4224.00
2019-03-12T10:40:23.111Z,4520.00
2019-03-12T10:41:23.093Z,5500.00
2019-03-12T10:42:23.083Z,4996.00
2019-03-12T10:43:23.077Z,3976.00
2019-03-12T10:44:23.087Z,3244.00
2019-03-12T10:45:23.081Z,3824.00
2019-03-12T10:46:23.033Z,4440.00
2019-03-12T10:47:23.031Z,4376.00
2019-03-12T10:48:23.053Z,4180.00
2019-03-12T10:49:23.009Z,4776.00
2019-03-12T10:50:22.999Z,5620.00
2019-03-12T10:51:23.016Z,6356.00
2019-03-12T10:52:22.970Z,6300.00
2019-03-12T10:53:22.986Z,5948.00
2019-03-12T10:54:22.957Z,6632.00
2019-03-12T10:55:23.408Z,7032.00
2019-03-12T10:56:22.935Z,7176.00
2019-03-12T10:57:22.936Z,6732.00
2019-03-12T10:58:22.917Z,6072.00
2019-03-12T10:59:22.900Z,5840.00
2019-03-12T11:00:22.900Z,5632.00
2019-03-12T11:01:22.921Z,5556.00
2019-03-12T11:02:22.893Z,5072.00
2019-03-12T11:03:22.857Z,4688.00
2019-03-12T11:04:22.849Z,4432.00
2019-03-12T11:05:22.839Z,4248.00
2019-03-12T11:06:22.824Z,4448.00
2019-03-12T11:07:22.853Z,4468.00
2019-03-12T11:08:22.803Z,4788.00
2019-03-12T11:09:22.792Z,4776.00
2019-03-12T11:10:22.782Z,4556.00
2019-03-12T11:11:22.758Z,4064.00
2019-03-12T11:12:22.758Z,4024.00
2019-03-12T11:13:22.784Z,4172.00
2019-03-12T11:14:22.919Z,4036.00
2019-03-12T11:15:22.725Z,3388.00
2019-03-12T11:16:22.713Z,3604.00
2019-03-12T11:17:22.702Z,3820.00
2019-03-12T11:18:22.721Z,3864.00
2019-03-12T11:19:22.676Z,3860.00
2019-03-12T11:20:22.682Z,3828.00
2019-03-12T11:21:22.661Z,3940.00
2019-03-12T11:22:22.646Z,4084.00
2019-03-12T11:24:21.645Z,3836.00
2019-03-12T11:25:27.826Z,4028.00
2019-03-12T11:26:22.606Z,4152.00
2019-03-12T11:27:22.591Z,4036.00
2019-03-12T11:28:22.581Z,4396.00
2019-03-12T11:29:22.608Z,5580.00
2019-03-12T11:30:22.642Z,7060.00
2019-03-12T11:31:22.555Z,7564.00
2019-03-12T11:32:22.548Z,7052.00
2019-03-12T11:33:22.523Z,6688.00
2019-03-12T11:34:22.510Z,6792.00
2019-03-12T11:35:22.548Z,6076.00
2019-03-12T11:36:22.574Z,5544.00
2019-03-12T11:37:22.870Z,5836.00
2019-03-12T11:38:22.554Z,6536.00
2019-03-12T11:39:22.466Z,6476.00
2019-03-12T11:40:22.456Z,6072.00
2019-03-12T11:41:22.435Z,6460.00
2019-03-12T11:43:21.449Z,6892.00
2019-03-12T11:44:22.411Z,5984.00
2019-03-12T11:45:35.676Z,5888.00
2019-03-12T11:46:22.407Z,5804.00
2019-03-12T11:47:22.382Z,5252.00
2019-03-12T11:48:22.440Z,5956.00
2019-03-12T11:49:22.377Z,6456.00
2019-03-12T11:50:22.372Z,6036.00
2019-03-12T11:51:22.363Z,5404.00
2019-03-12T11:52:22.350Z,4860.00
2019-03-12T11:53:22.338Z,5296.00
2019-03-12T11:54:22.336Z,5860.00
2019-03-12T11:56:21.380Z,6008.00
2019-03-12T11:57:22.260Z,6204.00
2019-03-12T11:58:22.257Z,6748.00
2019-03-12T11:59:22.268Z,6624.00
2019-03-12T12:00:22.233Z,6800.00
2019-03-12T12:01:22.225Z,7544.00
2019-03-12T12:02:22.210Z,7452.00
2019-03-12T12:03:22.200Z,7212.00
2019-03-12T12:04:22.223Z,6788.00
2019-03-12T12:05:22.179Z,6332.00
2019-03-12T12:06:22.593Z,5100.00
2019-03-12T12:07:22.152Z,4584.00
2019-03-12T12:08:22.347Z,5052.00
2019-03-12T12:09:22.164Z,5384.00
2019-03-12T12:10:22.165Z,4936.00
2019-03-12T12:11:22.107Z,4884.00
2019-03-12T12:12:22.128Z,5348.00
2019-03-12T12:13:22.855Z,5724.00
2019-03-12T12:14:22.078Z,5676.00
2019-03-12T12:15:22.072Z,5720.00
2019-03-12T12:16:22.056Z,5952.00
2019-03-12T12:17:22.093Z,5448.00
2019-03-12T12:18:22.039Z,4692.00
2019-03-12T12:19:22.024Z,3852.00
2019-03-12T12:20:29.596Z,3804.00
2019-03-12T12:21:22.001Z,3896.00
2019-03-12T12:22:21.996Z,4040.00
2019-03-12T12:23:22.011Z,4696.00
2019-03-12T12:24:21.999Z,5892.00
2019-03-12T12:25:22.445Z,6488.00
2019-03-12T12:26:21.954Z,6400.00
2019-03-12T12:27:21.931Z,7316.00
2019-03-12T12:28:21.923Z,7264.00
2019-03-12T12:29:21.936Z,8012.00
2019-03-12T12:30:21.914Z,7832.00
2019-03-12T12:31:21.890Z,6828.00
2019-03-12T12:32:21.877Z,6060.00
2019-03-12T12:33:21.899Z,5936.00
2019-03-12T12:34:21.880Z,5908.00
2019-03-12T12:35:21.842Z,5412.00
2019-03-12T12:36:21.834Z,5228.00
2019-03-12T12:37:21.825Z,5284.00
2019-03-12T12:38:21.815Z,4988.00
2019-03-12T12:39:21.831Z,4084.00
2019-03-12T12:40:21.851Z,3680.00
2019-03-12T12:41:21.803Z,3544.00
2019-03-12T12:42:21.770Z,3988.00
2019-03-12T12:43:21.785Z,4656.00
2019-03-12T12:44:21.747Z,5320.00
2019-03-12T12:45:21.736Z,6428.00
2019-03-12T12:46:21.764Z,5088.00
2019-03-12T12:47:21.712Z,4128.00
2019-03-12T12:48:21.732Z,5064.00
2019-03-12T12:49:21.690Z,5756.00
2019-03-12T12:50:21.712Z,5844.00